sensor_id;sensor_type;location;lat;lon;timestamp;temperature;humidity
9437;DHT22;4757;59.334;18.034;2023-05-01T00:01:51;6.80;99.90
9437;DHT22;4757;59.334;18.034;2023-05-01T00:04:18;6.70;99.90
9437;DHT22;4757;59.334;18.034;2023-05-01T00:06:45;6.70;99.90
9437;DHT22;4757;59.334;18.034;2023-05-01T00:09:12;6.70;99.90
9437;DHT22;4757;59.334;18.034;2023-05-01T00:11:39;6.60;99.90
9437;DHT22;4757;59.334;18.034;2023-05-01T00:14:06;6.50;99.90
9437;DHT22;4757;59.334;18.034;2023-05-01T00:16:33;6.50;99.90
9437;DHT22;4757;59.334;18.034;2023-05-01T00:19:02;6.50;99.90
9437;DHT22;4757;59.334;18.034;2023-05-01T00:21:30;6.50;99.90
9437;DHT22;4757;59.334;18.034;2023-05-01T00:23:57;6.50;99.90
9437;DHT22;4757;59.334;18.034;2023-05-01T00:26:24;6.40;99.90
9437;DHT22;4757;59.334;18.034;2023-05-01T00:28:56;6.40;99.90
9437;DHT22;4757;59.334;18.034;2023-05-01T00:31:24;6.30;99.90
9437;DHT22;4757;59.334;18.034;2023-05-01T00:33:51;6.30;99.90
9437;DHT22;4757;59.334;18.034;2023-05-01T00:36:19;6.30;99.90
9437;DHT22;4757;59.334;18.034;2023-05-01T00:38:48;6.30;99.90
9437;DHT22;4757;59.334;18.034;2023-05-01T00:41:15;6.30;99.90
9437;DHT22;4757;59.334;18.034;2023-05-01T00:43:42;6.20;99.90
9437;DHT22;4757;59.334;18.034;2023-05-01T00:46:09;6.20;99.90
9437;DHT22;4757;59.334;18.034;2023-05-01T00:48:37;6.10;99.90
9437;DHT22;4757;59.334;18.034;2023-05-01T00:51:04;6.10;99.90
9437;DHT22;4757;59.334;18.034;2023-05-01T00:53:33;6.10;99.90
9437;DHT22;4757;59.334;18.034;2023-05-01T00:56:00;6.10;99.90
9437;DHT22;4757;59.334;18.034;2023-05-01T00:58:28;6.10;99.90
9437;DHT22;4757;59.334;18.034;2023-05-01T01:00:55;6.00;99.90
9437;DHT22;4757;59.334;18.034;2023-05-01T01:03:23;6.00;99.90
9437;DHT22;4757;59.334;18.034;2023-05-01T01:08:48;6.00;99.90
9437;DHT22;4757;59.334;18.034;2023-05-01T01:13:55;5.90;99.90
9437;DHT22;4757;59.334;18.034;2023-05-01T01:16:43;5.90;99.90
9437;DHT22;4757;59.334;18.034;2023-05-01T01:21:45;5.90;99.90
9437;DHT22;4757;59.334;18.034;2023-05-01T01:27:22;5.80;99.90
9437;DHT22;4757;59.334;18.034;2023-05-01T01:35:20;5.70;99.90
9437;DHT22;4757;59.334;18.034;2023-05-01T01:38:13;5.70;99.90
9437;DHT22;4757;59.334;18.034;2023-05-01T01:41:23;5.70;99.90
9437;DHT22;4757;59.334;18.034;2023-05-01T01:43:57;5.70;99.90
9437;DHT22;4757;59.334;18.034;2023-05-01T01:46:26;5.70;99.90
9437;DHT22;4757;59.334;18.034;2023-05-01T01:48:55;5.70;99.90
9437;DHT22;4757;59.334;18.034;2023-05-01T01:51:24;5.60;99.90
9437;DHT22;4757;59.334;18.034;2023-05-01T01:53:53;5.60;99.90
9437;DHT22;4757;59.334;18.034;2023-05-01T01:56:25;5.60;99.90
9437;DHT22;4757;59.334;18.034;2023-05-01T01:58:54;5.50;99.90
9437;DHT22;4757;59.334;18.034;2023-05-01T02:01:22;5.50;99.90
9437;DHT22;4757;59.334;18.034;2023-05-01T02:03:51;5.50;99.90
9437;DHT22;4757;59.334;18.034;2023-05-01T02:06:20;5.50;99.90
9437;DHT22;4757;59.334;18.034;2023-05-01T02:08:49;5.60;99.90
9437;DHT22;4757;59.334;18.034;2023-05-01T02:11:19;5.60;99.90
9437;DHT22;4757;59.334;18.034;2023-05-01T02:13:48;5.60;99.90
9437;DHT22;4757;59.334;18.034;2023-05-01T02:16:17;5.50;99.90
9437;DHT22;4757;59.334;18.034;2023-05-01T02:18:45;5.50;99.90
9437;DHT22;4757;59.334;18.034;2023-05-01T02:21:13;5.50;99.90
9437;DHT22;4757;59.334;18.034;2023-05-01T02:23:41;5.50;99.90
9437;DHT22;4757;59.334;18.034;2023-05-01T02:26:12;5.40;99.90
9437;DHT22;4757;59.334;18.034;2023-05-01T02:28:42;5.40;99.90
9437;DHT22;4757;59.334;18.034;2023-05-01T02:31:09;5.40;99.90
9437;DHT22;4757;59.334;18.034;2023-05-01T02:33:37;5.40;99.90
9437;DHT22;4757;59.334;18.034;2023-05-01T02:36:04;5.40;99.90
9437;DHT22;4757;59.334;18.034;2023-05-01T02:38:31;5.40;99.90
9437;DHT22;4757;59.334;18.034;2023-05-01T02:40:59;5.40;99.90
9437;DHT22;4757;59.334;18.034;2023-05-01T02:43:27;5.40;99.90
9437;DHT22;4757;59.334;18.034;2023-05-01T02:45:58;5.40;99.90
9437;DHT22;4757;59.334;18.034;2023-05-01T02:48:27;5.50;99.90
9437;DHT22;4757;59.334;18.034;2023-05-01T02:50:57;5.40;99.90
9437;DHT22;4757;59.334;18.034;2023-05-01T02:53:24;5.40;99.90
9437;DHT22;4757;59.334;18.034;2023-05-01T02:55:51;5.40;99.90
9437;DHT22;4757;59.334;18.034;2023-05-01T02:58:19;5.40;99.90
9437;DHT22;4757;59.334;18.034;2023-05-01T03:00:48;5.30;99.90
9437;DHT22;4757;59.334;18.034;2023-05-01T03:03:16;5.40;99.90
9437;DHT22;4757;59.334;18.034;2023-05-01T03:05:43;5.30;99.90
9437;DHT22;4757;59.334;18.034;2023-05-01T03:08:10;5.30;99.90
9437;DHT22;4757;59.334;18.034;2023-05-01T03:10:41;5.30;99.90
9437;DHT22;4757;59.334;18.034;2023-05-01T03:13:09;5.30;99.90
9437;DHT22;4757;59.334;18.034;2023-05-01T03:15:37;5.30;99.90
9437;DHT22;4757;59.334;18.034;2023-05-01T03:18:04;5.30;99.90
9437;DHT22;4757;59.334;18.034;2023-05-01T03:20:32;5.40;99.90
9437;DHT22;4757;59.334;18.034;2023-05-01T03:22:59;5.40;99.90
9437;DHT22;4757;59.334;18.034;2023-05-01T03:25:27;5.40;99.90
9437;DHT22;4757;59.334;18.034;2023-05-01T03:27:54;5.40;99.90
9437;DHT22;4757;59.334;18.034;2023-05-01T03:30:21;5.40;99.90
9437;DHT22;4757;59.334;18.034;2023-05-01T03:32:48;5.40;99.90
9437;DHT22;4757;59.334;18.034;2023-05-01T03:35:15;5.50;99.90
9437;DHT22;4757;59.334;18.034;2023-05-01T03:37:42;5.40;99.90
9437;DHT22;4757;59.334;18.034;2023-05-01T03:40:09;5.50;99.90
9437;DHT22;4757;59.334;18.034;2023-05-01T03:42:38;5.40;99.90
9437;DHT22;4757;59.334;18.034;2023-05-01T03:45:05;5.40;99.90
9437;DHT22;4757;59.334;18.034;2023-05-01T03:47:32;5.50;99.90
9437;DHT22;4757;59.334;18.034;2023-05-01T03:49:59;5.40;99.90
9437;DHT22;4757;59.334;18.034;2023-05-01T03:52:27;5.40;99.90
9437;DHT22;4757;59.334;18.034;2023-05-01T03:54:54;5.40;99.90
9437;DHT22;4757;59.334;18.034;2023-05-01T03:57:21;5.40;99.90
9437;DHT22;4757;59.334;18.034;2023-05-01T03:59:49;5.30;99.90
9437;DHT22;4757;59.334;18.034;2023-05-01T04:02:16;5.40;99.90
9437;DHT22;4757;59.334;18.034;2023-05-01T04:04:43;5.40;99.90
9437;DHT22;4757;59.334;18.034;2023-05-01T04:07:10;5.40;99.90
9437;DHT22;4757;59.334;18.034;2023-05-01T04:09:37;5.50;99.90
9437;DHT22;4757;59.334;18.034;2023-05-01T04:12:04;5.50;99.90
9437;DHT22;4757;59.334;18.034;2023-05-01T04:14:32;5.50;99.90
9437;DHT22;4757;59.334;18.034;2023-05-01T04:16:58;5.60;99.90
9437;DHT22;4757;59.334;18.034;2023-05-01T04:19:26;5.60;99.90
9437;DHT22;4757;59.334;18.034;2023-05-01T04:21:53;5.60;99.90
9437;DHT22;4757;59.334;18.034;2023-05-01T04:24:20;5.70;99.90
9437;DHT22;4757;59.334;18.034;2023-05-01T04:26:47;5.80;99.90
9437;DHT22;4757;59.334;18.034;2023-05-01T04:29:15;5.80;99.90
9437;DHT22;4757;59.334;18.034;2023-05-01T04:31:42;5.80;99.90
9437;DHT22;4757;59.334;18.034;2023-05-01T04:34:09;5.80;99.90
9437;DHT22;4757;59.334;18.034;2023-05-01T04:36:36;5.80;99.90
9437;DHT22;4757;59.334;18.034;2023-05-01T04:39:03;5.90;99.90
9437;DHT22;4757;59.334;18.034;2023-05-01T04:41:31;5.90;99.90
9437;DHT22;4757;59.334;18.034;2023-05-01T04:43:58;6.00;99.90
9437;DHT22;4757;59.334;18.034;2023-05-01T04:46:24;6.10;99.90
9437;DHT22;4757;59.334;18.034;2023-05-01T04:48:52;6.20;99.90
9437;DHT22;4757;59.334;18.034;2023-05-01T04:51:19;6.20;99.90
9437;DHT22;4757;59.334;18.034;2023-05-01T04:53:46;6.30;99.90
9437;DHT22;4757;59.334;18.034;2023-05-01T04:56:13;6.20;99.90
9437;DHT22;4757;59.334;18.034;2023-05-01T04:58:40;6.20;99.90
9437;DHT22;4757;59.334;18.034;2023-05-01T05:01:07;6.40;99.90
9437;DHT22;4757;59.334;18.034;2023-05-01T05:03:34;6.30;99.90
9437;DHT22;4757;59.334;18.034;2023-05-01T05:06:02;6.30;99.90
9437;DHT22;4757;59.334;18.034;2023-05-01T05:08:29;6.30;99.90
9437;DHT22;4757;59.334;18.034;2023-05-01T05:10:58;6.40;99.90
9437;DHT22;4757;59.334;18.034;2023-05-01T05:13:28;6.40;99.90
9437;DHT22;4757;59.334;18.034;2023-05-01T05:15:55;6.40;99.90
9437;DHT22;4757;59.334;18.034;2023-05-01T05:18:22;6.40;99.90
9437;DHT22;4757;59.334;18.034;2023-05-01T05:20:49;6.40;99.90
9437;DHT22;4757;59.334;18.034;2023-05-01T05:23:16;6.30;99.90
9437;DHT22;4757;59.334;18.034;2023-05-01T05:25:43;6.30;99.90
9437;DHT22;4757;59.334;18.034;2023-05-01T05:28:10;6.20;99.90
9437;DHT22;4757;59.334;18.034;2023-05-01T05:30:37;6.30;99.90
9437;DHT22;4757;59.334;18.034;2023-05-01T05:33:06;6.50;99.90
9437;DHT22;4757;59.334;18.034;2023-05-01T05:35:34;6.50;99.90
9437;DHT22;4757;59.334;18.034;2023-05-01T05:38:01;6.60;99.90
9437;DHT22;4757;59.334;18.034;2023-05-01T05:40:28;6.60;99.90
9437;DHT22;4757;59.334;18.034;2023-05-01T05:42:55;6.60;99.90
9437;DHT22;4757;59.334;18.034;2023-05-01T05:45:22;6.60;99.90
9437;DHT22;4757;59.334;18.034;2023-05-01T05:47:50;6.50;99.90
9437;DHT22;4757;59.334;18.034;2023-05-01T05:50:17;6.60;99.90
9437;DHT22;4757;59.334;18.034;2023-05-01T05:52:44;6.70;99.90
9437;DHT22;4757;59.334;18.034;2023-05-01T05:55:11;6.70;99.90
9437;DHT22;4757;59.334;18.034;2023-05-01T05:57:38;6.80;99.90
9437;DHT22;4757;59.334;18.034;2023-05-01T06:00:06;6.90;99.90
9437;DHT22;4757;59.334;18.034;2023-05-01T06:02:35;7.00;99.90
9437;DHT22;4757;59.334;18.034;2023-05-01T06:05:02;7.10;99.90
9437;DHT22;4757;59.334;18.034;2023-05-01T06:07:30;7.20;99.90
9437;DHT22;4757;59.334;18.034;2023-05-01T06:09:57;7.40;99.90
9437;DHT22;4757;59.334;18.034;2023-05-01T06:12:31;7.40;99.90
9437;DHT22;4757;59.334;18.034;2023-05-01T06:15:00;7.40;99.90
9437;DHT22;4757;59.334;18.034;2023-05-01T06:17:28;7.30;99.90
9437;DHT22;4757;59.334;18.034;2023-05-01T06:19:55;7.30;99.90
9437;DHT22;4757;59.334;18.034;2023-05-01T06:22:22;7.30;99.90
9437;DHT22;4757;59.334;18.034;2023-05-01T06:24:49;7.40;99.90
9437;DHT22;4757;59.334;18.034;2023-05-01T06:27:17;7.40;99.90
9437;DHT22;4757;59.334;18.034;2023-05-01T06:29:44;7.50;99.90
9437;DHT22;4757;59.334;18.034;2023-05-01T06:32:11;7.50;99.90
9437;DHT22;4757;59.334;18.034;2023-05-01T06:34:38;7.60;99.90
9437;DHT22;4757;59.334;18.034;2023-05-01T06:37:05;7.90;99.90
9437;DHT22;4757;59.334;18.034;2023-05-01T06:39:33;8.00;99.90
9437;DHT22;4757;59.334;18.034;2023-05-01T06:42:00;8.20;99.90
9437;DHT22;4757;59.334;18.034;2023-05-01T06:44:29;8.10;99.90
9437;DHT22;4757;59.334;18.034;2023-05-01T06:46:58;8.20;99.90
9437;DHT22;4757;59.334;18.034;2023-05-01T06:49:27;8.20;99.90
9437;DHT22;4757;59.334;18.034;2023-05-01T06:51:54;8.20;99.90
9437;DHT22;4757;59.334;18.034;2023-05-01T06:54:21;8.40;99.90
9437;DHT22;4757;59.334;18.034;2023-05-01T06:56:48;8.40;99.90
9437;DHT22;4757;59.334;18.034;2023-05-01T06:59:15;8.40;99.90
9437;DHT22;4757;59.334;18.034;2023-05-01T07:01:42;8.20;99.90
9437;DHT22;4757;59.334;18.034;2023-05-01T07:04:09;8.20;99.90
9437;DHT22;4757;59.334;18.034;2023-05-01T07:06:36;8.10;99.90
9437;DHT22;4757;59.334;18.034;2023-05-01T07:09:04;8.20;99.90
9437;DHT22;4757;59.334;18.034;2023-05-01T07:11:31;8.50;99.90
9437;DHT22;4757;59.334;18.034;2023-05-01T07:13:59;8.60;99.90
9437;DHT22;4757;59.334;18.034;2023-05-01T07:16:26;8.80;99.90
9437;DHT22;4757;59.334;18.034;2023-05-01T07:18:54;9.30;99.90
9437;DHT22;4757;59.334;18.034;2023-05-01T07:21:21;9.40;99.90
9437;DHT22;4757;59.334;18.034;2023-05-01T07:23:48;9.90;99.90
9437;DHT22;4757;59.334;18.034;2023-05-01T07:26:14;9.60;99.90
9437;DHT22;4757;59.334;18.034;2023-05-01T07:28:42;10.10;99.90
9437;DHT22;4757;59.334;18.034;2023-05-01T07:31:09;9.70;99.90
9437;DHT22;4757;59.334;18.034;2023-05-01T07:33:36;9.90;99.90
9437;DHT22;4757;59.334;18.034;2023-05-01T07:36:03;10.60;99.90
9437;DHT22;4757;59.334;18.034;2023-05-01T07:38:30;11.10;99.90
9437;DHT22;4757;59.334;18.034;2023-05-01T07:40:57;11.00;99.90
9437;DHT22;4757;59.334;18.034;2023-05-01T07:43:25;10.70;99.90
9437;DHT22;4757;59.334;18.034;2023-05-01T07:45:57;10.50;99.90
9437;DHT22;4757;59.334;18.034;2023-05-01T07:48:28;10.50;99.90
9437;DHT22;4757;59.334;18.034;2023-05-01T07:50:55;10.00;99.90
9437;DHT22;4757;59.334;18.034;2023-05-01T07:53:22;9.90;99.90
9437;DHT22;4757;59.334;18.034;2023-05-01T07:55:49;10.10;99.90
9437;DHT22;4757;59.334;18.034;2023-05-01T07:58:16;9.80;99.90
9437;DHT22;4757;59.334;18.034;2023-05-01T08:00:43;9.40;99.90
9437;DHT22;4757;59.334;18.034;2023-05-01T08:03:11;9.30;99.90
9437;DHT22;4757;59.334;18.034;2023-05-01T08:05:40;9.30;99.90
9437;DHT22;4757;59.334;18.034;2023-05-01T08:08:08;9.30;99.90
9437;DHT22;4757;59.334;18.034;2023-05-01T08:10:35;9.50;99.90
9437;DHT22;4757;59.334;18.034;2023-05-01T08:13:02;9.60;99.90
9437;DHT22;4757;59.334;18.034;2023-05-01T08:15:29;9.40;99.90
9437;DHT22;4757;59.334;18.034;2023-05-01T08:17:56;9.40;99.90
9437;DHT22;4757;59.334;18.034;2023-05-01T08:20:24;9.40;99.90
9437;DHT22;4757;59.334;18.034;2023-05-01T08:22:50;9.60;99.90
9437;DHT22;4757;59.334;18.034;2023-05-01T08:25:17;10.00;99.90
9437;DHT22;4757;59.334;18.034;2023-05-01T08:27:45;10.10;99.90
9437;DHT22;4757;59.334;18.034;2023-05-01T08:30:12;10.20;99.90
9437;DHT22;4757;59.334;18.034;2023-05-01T08:32:39;10.00;99.90
9437;DHT22;4757;59.334;18.034;2023-05-01T08:35:06;9.90;99.90
9437;DHT22;4757;59.334;18.034;2023-05-01T08:37:33;10.00;99.90
9437;DHT22;4757;59.334;18.034;2023-05-01T08:40:00;9.70;99.90
9437;DHT22;4757;59.334;18.034;2023-05-01T08:42:34;9.70;99.90
9437;DHT22;4757;59.334;18.034;2023-05-01T08:45:08;9.50;99.90
9437;DHT22;4757;59.334;18.034;2023-05-01T08:47:38;9.60;99.90
9437;DHT22;4757;59.334;18.034;2023-05-01T08:50:09;9.70;99.90
9437;DHT22;4757;59.334;18.034;2023-05-01T08:52:40;9.80;99.90
9437;DHT22;4757;59.334;18.034;2023-05-01T08:55:14;9.80;99.90
9437;DHT22;4757;59.334;18.034;2023-05-01T08:57:45;9.80;99.90
9437;DHT22;4757;59.334;18.034;2023-05-01T09:00:18;9.70;99.90
9437;DHT22;4757;59.334;18.034;2023-05-01T09:02:47;9.90;99.90
9437;DHT22;4757;59.334;18.034;2023-05-01T09:05:15;9.70;99.90
9437;DHT22;4757;59.334;18.034;2023-05-01T09:07:44;9.80;99.90
9437;DHT22;4757;59.334;18.034;2023-05-01T09:10:13;10.00;99.90
9437;DHT22;4757;59.334;18.034;2023-05-01T09:12:41;9.90;99.90
9437;DHT22;4757;59.334;18.034;2023-05-01T09:15:12;10.20;99.90
9437;DHT22;4757;59.334;18.034;2023-05-01T09:17:39;10.50;99.90
9437;DHT22;4757;59.334;18.034;2023-05-01T09:20:07;10.40;99.90
9437;DHT22;4757;59.334;18.034;2023-05-01T09:22:34;10.40;99.90
9437;DHT22;4757;59.334;18.034;2023-05-01T09:25:02;10.40;99.90
9437;DHT22;4757;59.334;18.034;2023-05-01T09:27:33;10.10;99.90
9437;DHT22;4757;59.334;18.034;2023-05-01T09:30:01;10.10;99.90
9437;DHT22;4757;59.334;18.034;2023-05-01T09:32:29;10.10;99.90
9437;DHT22;4757;59.334;18.034;2023-05-01T09:35:13;10.10;99.90
9437;DHT22;4757;59.334;18.034;2023-05-01T09:37:41;10.10;99.90
9437;DHT22;4757;59.334;18.034;2023-05-01T09:40:13;10.00;99.90
9437;DHT22;4757;59.334;18.034;2023-05-01T09:42:51;10.00;99.90
9437;DHT22;4757;59.334;18.034;2023-05-01T09:45:18;9.90;99.90
9437;DHT22;4757;59.334;18.034;2023-05-01T09:47:46;10.00;99.90
9437;DHT22;4757;59.334;18.034;2023-05-01T09:50:33;10.00;99.90
9437;DHT22;4757;59.334;18.034;2023-05-01T09:53:01;9.90;99.90
9437;DHT22;4757;59.334;18.034;2023-05-01T09:55:30;9.90;99.90
9437;DHT22;4757;59.334;18.034;2023-05-01T09:57:58;9.80;99.90
9437;DHT22;4757;59.334;18.034;2023-05-01T10:00:25;9.80;99.90
9437;DHT22;4757;59.334;18.034;2023-05-01T10:02:52;9.70;99.90
9437;DHT22;4757;59.334;18.034;2023-05-01T10:05:19;9.80;99.90
9437;DHT22;4757;59.334;18.034;2023-05-01T10:07:57;9.90;99.90
9437;DHT22;4757;59.334;18.034;2023-05-01T10:10:25;10.00;99.90
9437;DHT22;4757;59.334;18.034;2023-05-01T10:12:52;10.00;99.90
9437;DHT22;4757;59.334;18.034;2023-05-01T10:15:19;10.00;99.90
9437;DHT22;4757;59.334;18.034;2023-05-01T10:17:52;10.10;99.90
9437;DHT22;4757;59.334;18.034;2023-05-01T10:20:20;10.20;99.90
9437;DHT22;4757;59.334;18.034;2023-05-01T10:22:47;10.40;99.90
9437;DHT22;4757;59.334;18.034;2023-05-01T10:25:16;10.50;99.90
9437;DHT22;4757;59.334;18.034;2023-05-01T10:27:44;10.60;99.90
9437;DHT22;4757;59.334;18.034;2023-05-01T10:30:11;10.50;99.90
9437;DHT22;4757;59.334;18.034;2023-05-01T10:32:40;10.30;99.90
9437;DHT22;4757;59.334;18.034;2023-05-01T10:35:11;10.20;99.90
9437;DHT22;4757;59.334;18.034;2023-05-01T10:37:50;9.80;99.90
9437;DHT22;4757;59.334;18.034;2023-05-01T10:40:46;9.70;99.90
9437;DHT22;4757;59.334;18.034;2023-05-01T10:43:15;9.90;99.90
9437;DHT22;4757;59.334;18.034;2023-05-01T10:45:47;10.00;99.90
9437;DHT22;4757;59.334;18.034;2023-05-01T10:51:09;9.90;99.90
9437;DHT22;4757;59.334;18.034;2023-05-01T10:53:39;10.00;99.90
9437;DHT22;4757;59.334;18.034;2023-05-01T10:58:58;9.80;99.90
9437;DHT22;4757;59.334;18.034;2023-05-01T11:01:33;9.70;99.90
9437;DHT22;4757;59.334;18.034;2023-05-01T11:09:44;9.50;99.90
9437;DHT22;4757;59.334;18.034;2023-05-01T11:12:46;9.40;99.90
9437;DHT22;4757;59.334;18.034;2023-05-01T11:15:03;9.50;99.90
9437;DHT22;4757;59.334;18.034;2023-05-01T11:23:01;9.50;99.90
9437;DHT22;4757;59.334;18.034;2023-05-01T11:25:29;9.50;99.90
9437;DHT22;4757;59.334;18.034;2023-05-01T11:28:00;9.40;99.90
9437;DHT22;4757;59.334;18.034;2023-05-01T11:30:37;9.50;99.90
9437;DHT22;4757;59.334;18.034;2023-05-01T11:33:04;9.50;99.90
9437;DHT22;4757;59.334;18.034;2023-05-01T11:35:37;9.60;99.90
9437;DHT22;4757;59.334;18.034;2023-05-01T11:38:04;9.70;99.90
9437;DHT22;4757;59.334;18.034;2023-05-01T11:40:32;9.70;99.90
9437;DHT22;4757;59.334;18.034;2023-05-01T11:43:02;9.80;99.90
9437;DHT22;4757;59.334;18.034;2023-05-01T11:45:30;9.70;99.90
9437;DHT22;4757;59.334;18.034;2023-05-01T11:47:58;9.90;99.90
9437;DHT22;4757;59.334;18.034;2023-05-01T11:50:36;9.90;99.90
9437;DHT22;4757;59.334;18.034;2023-05-01T11:53:09;9.90;99.90
9437;DHT22;4757;59.334;18.034;2023-05-01T11:55:44;10.00;99.90
9437;DHT22;4757;59.334;18.034;2023-05-01T11:58:12;9.90;99.90
9437;DHT22;4757;59.334;18.034;2023-05-01T12:00:40;9.70;99.90
9437;DHT22;4757;59.334;18.034;2023-05-01T12:03:10;9.50;99.90
9437;DHT22;4757;59.334;18.034;2023-05-01T12:05:40;9.50;99.90
9437;DHT22;4757;59.334;18.034;2023-05-01T12:08:19;9.30;99.90
9437;DHT22;4757;59.334;18.034;2023-05-01T12:10:49;9.30;99.90
9437;DHT22;4757;59.334;18.034;2023-05-01T12:13:17;9.20;99.90
9437;DHT22;4757;59.334;18.034;2023-05-01T12:15:45;9.00;99.90
9437;DHT22;4757;59.334;18.034;2023-05-01T12:18:14;8.90;99.90
9437;DHT22;4757;59.334;18.034;2023-05-01T12:20:47;8.90;99.90
9437;DHT22;4757;59.334;18.034;2023-05-01T12:23:17;8.70;99.90
9437;DHT22;4757;59.334;18.034;2023-05-01T12:31:01;8.30;99.90
9437;DHT22;4757;59.334;18.034;2023-05-01T12:33:31;8.20;99.90
9437;DHT22;4757;59.334;18.034;2023-05-01T12:36:11;8.20;99.90
9437;DHT22;4757;59.334;18.034;2023-05-01T12:38:38;8.10;99.90
9437;DHT22;4757;59.334;18.034;2023-05-01T12:41:05;8.20;99.90
9437;DHT22;4757;59.334;18.034;2023-05-01T12:43:36;8.10;99.90
9437;DHT22;4757;59.334;18.034;2023-05-01T12:46:04;8.00;99.90
9437;DHT22;4757;59.334;18.034;2023-05-01T12:48:31;7.90;99.90
9437;DHT22;4757;59.334;18.034;2023-05-01T12:51:00;7.90;99.90
9437;DHT22;4757;59.334;18.034;2023-05-01T12:53:28;7.90;99.90
9437;DHT22;4757;59.334;18.034;2023-05-01T12:55:58;7.80;99.90
9437;DHT22;4757;59.334;18.034;2023-05-01T12:58:36;7.60;99.90
9437;DHT22;4757;59.334;18.034;2023-05-01T13:01:07;7.50;99.90
9437;DHT22;4757;59.334;18.034;2023-05-01T13:03:34;7.50;99.90
9437;DHT22;4757;59.334;18.034;2023-05-01T13:06:05;7.40;99.90
9437;DHT22;4757;59.334;18.034;2023-05-01T13:08:47;7.40;99.90
9437;DHT22;4757;59.334;18.034;2023-05-01T13:11:17;7.30;99.90
9437;DHT22;4757;59.334;18.034;2023-05-01T13:13:45;7.20;99.90
9437;DHT22;4757;59.334;18.034;2023-05-01T13:16:14;7.10;99.90
9437;DHT22;4757;59.334;18.034;2023-05-01T13:21:15;7.20;99.90
9437;DHT22;4757;59.334;18.034;2023-05-01T13:23:56;7.30;99.90
9437;DHT22;4757;59.334;18.034;2023-05-01T13:26:31;7.30;99.90
9437;DHT22;4757;59.334;18.034;2023-05-01T13:29:00;7.40;99.90
9437;DHT22;4757;59.334;18.034;2023-05-01T13:31:29;7.30;99.90
9437;DHT22;4757;59.334;18.034;2023-05-01T13:33:57;7.50;99.90
9437;DHT22;4757;59.334;18.034;2023-05-01T13:36:30;7.40;99.90
9437;DHT22;4757;59.334;18.034;2023-05-01T13:39:01;7.30;99.90
9437;DHT22;4757;59.334;18.034;2023-05-01T13:41:28;7.20;99.90
9437;DHT22;4757;59.334;18.034;2023-05-01T13:43:56;7.00;99.90
9437;DHT22;4757;59.334;18.034;2023-05-01T13:46:24;7.00;99.90
9437;DHT22;4757;59.334;18.034;2023-05-01T13:48:53;7.10;99.90
9437;DHT22;4757;59.334;18.034;2023-05-01T13:51:26;7.30;99.90
9437;DHT22;4757;59.334;18.034;2023-05-01T13:53:54;7.20;99.90
9437;DHT22;4757;59.334;18.034;2023-05-01T13:56:27;7.30;99.90
9437;DHT22;4757;59.334;18.034;2023-05-01T13:59:01;7.30;99.90
9437;DHT22;4757;59.334;18.034;2023-05-01T14:01:28;7.40;99.90
9437;DHT22;4757;59.334;18.034;2023-05-01T14:03:55;7.50;99.90
9437;DHT22;4757;59.334;18.034;2023-05-01T14:06:23;7.50;99.90
9437;DHT22;4757;59.334;18.034;2023-05-01T14:08:50;7.50;99.90
9437;DHT22;4757;59.334;18.034;2023-05-01T14:11:17;7.20;99.90
9437;DHT22;4757;59.334;18.034;2023-05-01T14:13:47;7.30;99.90
9437;DHT22;4757;59.334;18.034;2023-05-01T14:16:27;7.30;99.90
9437;DHT22;4757;59.334;18.034;2023-05-01T14:18:56;7.30;99.90
9437;DHT22;4757;59.334;18.034;2023-05-01T14:21:30;7.20;99.90
9437;DHT22;4757;59.334;18.034;2023-05-01T14:24:01;7.30;99.90
9437;DHT22;4757;59.334;18.034;2023-05-01T14:26:30;7.30;99.90
9437;DHT22;4757;59.334;18.034;2023-05-01T14:28:57;7.30;99.90
9437;DHT22;4757;59.334;18.034;2023-05-01T14:31:28;7.30;99.90
9437;DHT22;4757;59.334;18.034;2023-05-01T14:34:01;7.40;99.90
9437;DHT22;4757;59.334;18.034;2023-05-01T14:36:29;7.50;99.90
9437;DHT22;4757;59.334;18.034;2023-05-01T14:39:01;7.40;99.90
9437;DHT22;4757;59.334;18.034;2023-05-01T14:41:29;7.40;99.90
9437;DHT22;4757;59.334;18.034;2023-05-01T14:44:04;7.30;99.90
9437;DHT22;4757;59.334;18.034;2023-05-01T14:46:34;7.20;99.90
9437;DHT22;4757;59.334;18.034;2023-05-01T14:49:02;7.20;99.90
9437;DHT22;4757;59.334;18.034;2023-05-01T14:51:30;7.20;99.90
9437;DHT22;4757;59.334;18.034;2023-05-01T14:53:58;7.10;99.90
9437;DHT22;4757;59.334;18.034;2023-05-01T14:56:26;7.20;99.90
9437;DHT22;4757;59.334;18.034;2023-05-01T14:58:53;7.00;99.90
9437;DHT22;4757;59.334;18.034;2023-05-01T15:01:20;7.00;99.90
9437;DHT22;4757;59.334;18.034;2023-05-01T15:03:50;7.00;99.90
9437;DHT22;4757;59.334;18.034;2023-05-01T15:06:19;6.80;99.90
9437;DHT22;4757;59.334;18.034;2023-05-01T15:08:46;6.70;99.90
9437;DHT22;4757;59.334;18.034;2023-05-01T15:11:13;6.80;99.90
9437;DHT22;4757;59.334;18.034;2023-05-01T15:13:40;6.70;99.90
9437;DHT22;4757;59.334;18.034;2023-05-01T15:16:10;6.70;99.90
9437;DHT22;4757;59.334;18.034;2023-05-01T15:18:37;6.70;99.90
9437;DHT22;4757;59.334;18.034;2023-05-01T15:21:05;6.60;99.90
9437;DHT22;4757;59.334;18.034;2023-05-01T15:23:32;6.70;99.90
9437;DHT22;4757;59.334;18.034;2023-05-01T15:26:00;6.60;99.90
9437;DHT22;4757;59.334;18.034;2023-05-01T15:28:28;6.60;99.90
9437;DHT22;4757;59.334;18.034;2023-05-01T15:30:55;6.70;99.90
9437;DHT22;4757;59.334;18.034;2023-05-01T15:33:33;6.60;99.90
9437;DHT22;4757;59.334;18.034;2023-05-01T15:36:03;6.70;99.90
9437;DHT22;4757;59.334;18.034;2023-05-01T15:38:30;6.70;99.90
9437;DHT22;4757;59.334;18.034;2023-05-01T15:40:57;6.60;99.90
9437;DHT22;4757;59.334;18.034;2023-05-01T15:43:27;6.70;99.90
9437;DHT22;4757;59.334;18.034;2023-05-01T15:45:54;6.60;99.90
9437;DHT22;4757;59.334;18.034;2023-05-01T15:48:30;6.60;99.90
9437;DHT22;4757;59.334;18.034;2023-05-01T15:50:59;6.80;99.90
9437;DHT22;4757;59.334;18.034;2023-05-01T15:53:26;6.70;99.90
9437;DHT22;4757;59.334;18.034;2023-05-01T15:55:56;6.70;99.90
9437;DHT22;4757;59.334;18.034;2023-05-01T15:58:24;6.80;99.90
9437;DHT22;4757;59.334;18.034;2023-05-01T16:00:51;6.80;99.90
9437;DHT22;4757;59.334;18.034;2023-05-01T16:03:20;6.70;99.90
9437;DHT22;4757;59.334;18.034;2023-05-01T16:05:50;6.70;99.90
9437;DHT22;4757;59.334;18.034;2023-05-01T16:08:17;6.80;99.90
9437;DHT22;4757;59.334;18.034;2023-05-01T16:10:45;6.80;99.90
9437;DHT22;4757;59.334;18.034;2023-05-01T16:13:12;6.90;99.90
9437;DHT22;4757;59.334;18.034;2023-05-01T16:15:39;6.80;99.90
9437;DHT22;4757;59.334;18.034;2023-05-01T16:18:07;6.90;99.90
9437;DHT22;4757;59.334;18.034;2023-05-01T16:20:40;6.90;99.90
9437;DHT22;4757;59.334;18.034;2023-05-01T16:23:08;7.00;99.90
9437;DHT22;4757;59.334;18.034;2023-05-01T16:25:35;7.10;99.90
9437;DHT22;4757;59.334;18.034;2023-05-01T16:28:06;7.10;99.90
9437;DHT22;4757;59.334;18.034;2023-05-01T16:30:40;7.10;99.90
9437;DHT22;4757;59.334;18.034;2023-05-01T16:33:16;7.10;99.90
9437;DHT22;4757;59.334;18.034;2023-05-01T16:35:51;7.10;99.90
9437;DHT22;4757;59.334;18.034;2023-05-01T16:38:21;7.10;99.90
9437;DHT22;4757;59.334;18.034;2023-05-01T16:40:49;7.20;99.90
9437;DHT22;4757;59.334;18.034;2023-05-01T16:43:16;7.10;99.90
9437;DHT22;4757;59.334;18.034;2023-05-01T16:45:45;7.00;99.90
9437;DHT22;4757;59.334;18.034;2023-05-01T16:48:21;7.00;99.90
9437;DHT22;4757;59.334;18.034;2023-05-01T16:50:50;6.90;99.90
9437;DHT22;4757;59.334;18.034;2023-05-01T16:53:17;7.00;99.90